sensor_id;sensor_type;location;lat;lon;timestamp;temperature;humidity
15636;DHT22;7917;50.818;6.972;2022-11-04T00:00:15;10.30;99.90
15636;DHT22;7917;50.818;6.972;2022-11-04T00:02:44;10.30;99.90
15636;DHT22;7917;50.818;6.972;2022-11-04T00:05:11;10.10;99.90
15636;DHT22;7917;50.818;6.972;2022-11-04T00:07:39;10.10;99.90
15636;DHT22;7917;50.818;6.972;2022-11-04T00:10:23;10.00;99.90
15636;DHT22;7917;50.818;6.972;2022-11-04T00:13:11;10.00;99.90
15636;DHT22;7917;50.818;6.972;2022-11-04T00:15:37;10.00;99.90
15636;DHT22;7917;50.818;6.972;2022-11-04T00:18:23;10.00;99.90
15636;DHT22;7917;50.818;6.972;2022-11-04T00:20:50;10.10;99.90
15636;DHT22;7917;50.818;6.972;2022-11-04T00:23:35;10.10;99.90
15636;DHT22;7917;50.818;6.972;2022-11-04T00:26:20;10.10;99.90
15636;DHT22;7917;50.818;6.972;2022-11-04T00:29:05;10.00;99.90
15636;DHT22;7917;50.818;6.972;2022-11-04T00:31:32;10.00;99.90
15636;DHT22;7917;50.818;6.972;2022-11-04T00:34:19;9.90;99.90
15636;DHT22;7917;50.818;6.972;2022-11-04T00:36:46;9.80;99.90
15636;DHT22;7917;50.818;6.972;2022-11-04T00:39:13;9.80;99.90
15636;DHT22;7917;50.818;6.972;2022-11-04T00:41:43;9.80;99.90
15636;DHT22;7917;50.818;6.972;2022-11-04T00:44:10;9.80;99.90
15636;DHT22;7917;50.818;6.972;2022-11-04T00:46:38;9.80;99.90
15636;DHT22;7917;50.818;6.972;2022-11-04T00:49:05;9.70;99.90
15636;DHT22;7917;50.818;6.972;2022-11-04T00:51:34;9.80;99.90
15636;DHT22;7917;50.818;6.972;2022-11-04T00:54:01;9.80;99.90
15636;DHT22;7917;50.818;6.972;2022-11-04T00:56:28;9.80;99.90
15636;DHT22;7917;50.818;6.972;2022-11-04T00:58:58;9.80;99.90
15636;DHT22;7917;50.818;6.972;2022-11-04T01:01:25;9.80;99.90
15636;DHT22;7917;50.818;6.972;2022-11-04T01:03:53;9.80;99.90
15636;DHT22;7917;50.818;6.972;2022-11-04T01:06:21;9.70;99.90
15636;DHT22;7917;50.818;6.972;2022-11-04T01:08:56;9.70;99.90
15636;DHT22;7917;50.818;6.972;2022-11-04T01:11:24;9.60;99.90
15636;DHT22;7917;50.818;6.972;2022-11-04T01:13:53;9.50;99.90
15636;DHT22;7917;50.818;6.972;2022-11-04T01:16:21;9.40;99.90
15636;DHT22;7917;50.818;6.972;2022-11-04T01:18:48;9.40;99.90
15636;DHT22;7917;50.818;6.972;2022-11-04T01:21:16;9.30;99.90
15636;DHT22;7917;50.818;6.972;2022-11-04T01:23:44;9.30;99.90
15636;DHT22;7917;50.818;6.972;2022-11-04T01:26:14;9.30;99.90
15636;DHT22;7917;50.818;6.972;2022-11-04T01:28:42;9.30;99.90
15636;DHT22;7917;50.818;6.972;2022-11-04T01:31:12;9.20;99.90
15636;DHT22;7917;50.818;6.972;2022-11-04T01:33:40;9.20;99.90
15636;DHT22;7917;50.818;6.972;2022-11-04T01:36:08;9.10;99.90
15636;DHT22;7917;50.818;6.972;2022-11-04T01:38:36;9.00;99.90
15636;DHT22;7917;50.818;6.972;2022-11-04T01:41:04;8.90;99.90
15636;DHT22;7917;50.818;6.972;2022-11-04T01:43:49;8.80;99.90
15636;DHT22;7917;50.818;6.972;2022-11-04T01:46:30;8.80;99.90
15636;DHT22;7917;50.818;6.972;2022-11-04T01:49:02;8.70;99.90
15636;DHT22;7917;50.818;6.972;2022-11-04T01:51:33;8.70;99.90
15636;DHT22;7917;50.818;6.972;2022-11-04T01:54:03;8.60;99.90
15636;DHT22;7917;50.818;6.972;2022-11-04T01:56:31;8.60;99.90
15636;DHT22;7917;50.818;6.972;2022-11-04T01:59:04;8.50;99.90
15636;DHT22;7917;50.818;6.972;2022-11-04T02:01:32;8.40;99.90
15636;DHT22;7917;50.818;6.972;2022-11-04T02:04:00;8.30;99.90
15636;DHT22;7917;50.818;6.972;2022-11-04T02:06:49;8.20;99.90
15636;DHT22;7917;50.818;6.972;2022-11-04T02:09:17;8.10;99.90
15636;DHT22;7917;50.818;6.972;2022-11-04T02:11:45;8.00;99.90
15636;DHT22;7917;50.818;6.972;2022-11-04T02:14:32;8.00;99.90
15636;DHT22;7917;50.818;6.972;2022-11-04T02:17:05;7.90;99.90
15636;DHT22;7917;50.818;6.972;2022-11-04T02:19:52;7.90;99.90
15636;DHT22;7917;50.818;6.972;2022-11-04T02:22:41;7.80;99.90
15636;DHT22;7917;50.818;6.972;2022-11-04T02:25:25;7.80;99.90
15636;DHT22;7917;50.818;6.972;2022-11-04T02:28:13;7.70;99.90
15636;DHT22;7917;50.818;6.972;2022-11-04T02:30:47;7.70;99.90
15636;DHT22;7917;50.818;6.972;2022-11-04T02:33:19;7.70;99.90
15636;DHT22;7917;50.818;6.972;2022-11-04T02:35:56;7.70;99.90
15636;DHT22;7917;50.818;6.972;2022-11-04T02:38:35;7.70;99.90
15636;DHT22;7917;50.818;6.972;2022-11-04T02:41:12;7.70;99.90
15636;DHT22;7917;50.818;6.972;2022-11-04T02:43:47;7.70;99.90
15636;DHT22;7917;50.818;6.972;2022-11-04T02:46:20;7.60;99.90
15636;DHT22;7917;50.818;6.972;2022-11-04T02:48:54;7.70;99.90
15636;DHT22;7917;50.818;6.972;2022-11-04T02:51:27;7.60;99.90
15636;DHT22;7917;50.818;6.972;2022-11-04T02:54:02;7.60;99.90
15636;DHT22;7917;50.818;6.972;2022-11-04T02:56:32;7.50;99.90
15636;DHT22;7917;50.818;6.972;2022-11-04T02:59:03;7.50;99.90
15636;DHT22;7917;50.818;6.972;2022-11-04T03:01:35;7.50;99.90
15636;DHT22;7917;50.818;6.972;2022-11-04T03:04:10;7.50;99.90
15636;DHT22;7917;50.818;6.972;2022-11-04T03:06:40;7.40;99.90
15636;DHT22;7917;50.818;6.972;2022-11-04T03:09:11;7.50;99.90
15636;DHT22;7917;50.818;6.972;2022-11-04T03:11:41;7.40;99.90
15636;DHT22;7917;50.818;6.972;2022-11-04T03:14:13;7.40;99.90
15636;DHT22;7917;50.818;6.972;2022-11-04T03:16:45;7.40;99.90
15636;DHT22;7917;50.818;6.972;2022-11-04T03:19:16;7.30;99.90
15636;DHT22;7917;50.818;6.972;2022-11-04T03:21:50;7.30;99.90
15636;DHT22;7917;50.818;6.972;2022-11-04T03:24:19;7.20;99.90
15636;DHT22;7917;50.818;6.972;2022-11-04T03:26:50;7.20;99.90
15636;DHT22;7917;50.818;6.972;2022-11-04T03:29:24;7.30;99.90
15636;DHT22;7917;50.818;6.972;2022-11-04T03:32:02;7.40;99.90
15636;DHT22;7917;50.818;6.972;2022-11-04T03:34:32;7.40;99.90
15636;DHT22;7917;50.818;6.972;2022-11-04T03:37:00;7.40;99.90
15636;DHT22;7917;50.818;6.972;2022-11-04T03:39:27;7.40;99.90
15636;DHT22;7917;50.818;6.972;2022-11-04T03:41:58;7.40;99.90
15636;DHT22;7917;50.818;6.972;2022-11-04T03:44:26;7.40;99.90
15636;DHT22;7917;50.818;6.972;2022-11-04T03:46:59;7.30;99.90
15636;DHT22;7917;50.818;6.972;2022-11-04T03:49:26;7.30;99.90
15636;DHT22;7917;50.818;6.972;2022-11-04T03:51:57;7.30;99.90
15636;DHT22;7917;50.818;6.972;2022-11-04T03:54:25;7.20;99.90
15636;DHT22;7917;50.818;6.972;2022-11-04T03:57:07;7.20;99.90
15636;DHT22;7917;50.818;6.972;2022-11-04T03:59:55;7.10;99.90
15636;DHT22;7917;50.818;6.972;2022-11-04T04:02:46;7.10;99.90
15636;DHT22;7917;50.818;6.972;2022-11-04T04:05:20;7.10;99.90
15636;DHT22;7917;50.818;6.972;2022-11-04T04:07:53;7.20;99.90
15636;DHT22;7917;50.818;6.972;2022-11-04T04:10:28;7.20;99.90
15636;DHT22;7917;50.818;6.972;2022-11-04T04:13:22;7.20;99.90
15636;DHT22;7917;50.818;6.972;2022-11-04T04:15:56;7.20;99.90
15636;DHT22;7917;50.818;6.972;2022-11-04T04:18:32;7.20;99.90
15636;DHT22;7917;50.818;6.972;2022-11-04T04:21:03;7.20;99.90
15636;DHT22;7917;50.818;6.972;2022-11-04T04:23:34;7.20;99.90
15636;DHT22;7917;50.818;6.972;2022-11-04T04:26:21;7.20;99.90
15636;DHT22;7917;50.818;6.972;2022-11-04T04:29:09;7.20;99.90
15636;DHT22;7917;50.818;6.972;2022-11-04T04:31:37;7.10;99.90
15636;DHT22;7917;50.818;6.972;2022-11-04T04:34:19;7.00;99.90
15636;DHT22;7917;50.818;6.972;2022-11-04T04:36:52;6.90;99.90
15636;DHT22;7917;50.818;6.972;2022-11-04T04:39:23;6.90;99.90
15636;DHT22;7917;50.818;6.972;2022-11-04T04:42:09;6.70;99.90
15636;DHT22;7917;50.818;6.972;2022-11-04T04:44:55;6.60;99.90
15636;DHT22;7917;50.818;6.972;2022-11-04T04:47:38;6.50;99.90
15636;DHT22;7917;50.818;6.972;2022-11-04T04:50:10;6.50;99.90
15636;DHT22;7917;50.818;6.972;2022-11-04T04:52:40;6.40;99.90
15636;DHT22;7917;50.818;6.972;2022-11-04T04:55:09;6.40;99.90
15636;DHT22;7917;50.818;6.972;2022-11-04T04:57:36;6.40;99.90
15636;DHT22;7917;50.818;6.972;2022-11-04T05:00:07;6.30;99.90
15636;DHT22;7917;50.818;6.972;2022-11-04T05:02:35;6.30;99.90
15636;DHT22;7917;50.818;6.972;2022-11-04T05:05:02;6.20;99.90
15636;DHT22;7917;50.818;6.972;2022-11-04T05:07:32;6.20;99.90
15636;DHT22;7917;50.818;6.972;2022-11-04T05:09:59;6.10;99.90
15636;DHT22;7917;50.818;6.972;2022-11-04T05:12:26;6.10;99.90
15636;DHT22;7917;50.818;6.972;2022-11-04T05:15:15;6.10;99.90
15636;DHT22;7917;50.818;6.972;2022-11-04T05:17:43;6.00;99.90
15636;DHT22;7917;50.818;6.972;2022-11-04T05:20:10;6.00;99.90
15636;DHT22;7917;50.818;6.972;2022-11-04T05:22:40;6.10;99.90
15636;DHT22;7917;50.818;6.972;2022-11-04T05:25:07;6.10;99.90
15636;DHT22;7917;50.818;6.972;2022-11-04T05:27:34;6.10;99.90
15636;DHT22;7917;50.818;6.972;2022-11-04T05:30:03;6.10;99.90
15636;DHT22;7917;50.818;6.972;2022-11-04T05:32:31;6.10;99.90
15636;DHT22;7917;50.818;6.972;2022-11-04T05:34:58;6.00;99.90
15636;DHT22;7917;50.818;6.972;2022-11-04T05:37:26;6.00;99.90
15636;DHT22;7917;50.818;6.972;2022-11-04T05:39:55;6.10;99.90
15636;DHT22;7917;50.818;6.972;2022-11-04T05:42:22;6.10;99.90
15636;DHT22;7917;50.818;6.972;2022-11-04T05:44:50;6.30;99.90
15636;DHT22;7917;50.818;6.972;2022-11-04T05:47:17;6.50;99.90
15636;DHT22;7917;50.818;6.972;2022-11-04T05:49:45;6.50;99.90
15636;DHT22;7917;50.818;6.972;2022-11-04T05:52:13;6.50;99.90
15636;DHT22;7917;50.818;6.972;2022-11-04T05:54:40;6.50;99.90
15636;DHT22;7917;50.818;6.972;2022-11-04T05:57:10;6.50;99.90
15636;DHT22;7917;50.818;6.972;2022-11-04T05:59:38;6.50;99.90
15636;DHT22;7917;50.818;6.972;2022-11-04T06:02:05;6.40;99.90
15636;DHT22;7917;50.818;6.972;2022-11-04T06:04:33;6.40;99.90
15636;DHT22;7917;50.818;6.972;2022-11-04T06:07:01;6.40;99.90
15636;DHT22;7917;50.818;6.972;2022-11-04T06:09:28;6.40;99.90
15636;DHT22;7917;50.818;6.972;2022-11-04T06:12:06;6.50;99.90
15636;DHT22;7917;50.818;6.972;2022-11-04T06:14:35;6.60;99.90
15636;DHT22;7917;50.818;6.972;2022-11-04T06:17:02;6.60;99.90
15636;DHT22;7917;50.818;6.972;2022-11-04T06:19:30;6.60;99.90
15636;DHT22;7917;50.818;6.972;2022-11-04T06:21:59;6.70;99.90
15636;DHT22;7917;50.818;6.972;2022-11-04T06:24:26;6.70;99.90
15636;DHT22;7917;50.818;6.972;2022-11-04T06:26:53;6.70;99.90
15636;DHT22;7917;50.818;6.972;2022-11-04T06:29:21;6.60;99.90
15636;DHT22;7917;50.818;6.972;2022-11-04T06:31:49;6.70;99.90
15636;DHT22;7917;50.818;6.972;2022-11-04T06:34:16;6.70;99.90
15636;DHT22;7917;50.818;6.972;2022-11-04T06:36:45;6.90;99.90
15636;DHT22;7917;50.818;6.972;2022-11-04T06:39:12;6.80;99.90
15636;DHT22;7917;50.818;6.972;2022-11-04T06:41:40;6.80;99.90
15636;DHT22;7917;50.818;6.972;2022-11-04T06:44:08;6.80;99.90
15636;DHT22;7917;50.818;6.972;2022-11-04T06:46:37;6.80;99.90
15636;DHT22;7917;50.818;6.972;2022-11-04T06:49:09;6.80;99.90
15636;DHT22;7917;50.818;6.972;2022-11-04T06:51:38;6.90;99.90
15636;DHT22;7917;50.818;6.972;2022-11-04T06:54:05;7.00;99.90
15636;DHT22;7917;50.818;6.972;2022-11-04T06:56:32;7.00;99.90
15636;DHT22;7917;50.818;6.972;2022-11-04T06:59:00;7.10;99.90
15636;DHT22;7917;50.818;6.972;2022-11-04T07:01:30;7.10;99.90
15636;DHT22;7917;50.818;6.972;2022-11-04T07:03:59;7.10;99.90
15636;DHT22;7917;50.818;6.972;2022-11-04T07:06:29;7.20;99.90
15636;DHT22;7917;50.818;6.972;2022-11-04T07:08:58;7.20;99.90
15636;DHT22;7917;50.818;6.972;2022-11-04T07:11:27;7.30;99.90
15636;DHT22;7917;50.818;6.972;2022-11-04T07:13:56;7.50;99.90
15636;DHT22;7917;50.818;6.972;2022-11-04T07:16:24;7.50;99.90
15636;DHT22;7917;50.818;6.972;2022-11-04T07:18:53;7.60;99.90
15636;DHT22;7917;50.818;6.972;2022-11-04T07:21:21;7.70;99.90
15636;DHT22;7917;50.818;6.972;2022-11-04T07:23:50;7.70;99.90
15636;DHT22;7917;50.818;6.972;2022-11-04T07:26:18;7.80;99.90
15636;DHT22;7917;50.818;6.972;2022-11-04T07:28:46;7.80;99.90
15636;DHT22;7917;50.818;6.972;2022-11-04T07:31:14;7.90;99.90
15636;DHT22;7917;50.818;6.972;2022-11-04T07:33:42;7.90;99.90
15636;DHT22;7917;50.818;6.972;2022-11-04T07:36:15;8.00;99.90
15636;DHT22;7917;50.818;6.972;2022-11-04T07:38:43;8.00;99.90
15636;DHT22;7917;50.818;6.972;2022-11-04T07:41:12;8.00;99.90
15636;DHT22;7917;50.818;6.972;2022-11-04T07:43:41;8.10;99.90
15636;DHT22;7917;50.818;6.972;2022-11-04T07:46:10;8.10;99.90
15636;DHT22;7917;50.818;6.972;2022-11-04T07:48:38;8.10;99.90
15636;DHT22;7917;50.818;6.972;2022-11-04T07:51:09;8.10;99.90
15636;DHT22;7917;50.818;6.972;2022-11-04T07:53:37;8.20;99.90
15636;DHT22;7917;50.818;6.972;2022-11-04T07:56:06;8.20;99.90
15636;DHT22;7917;50.818;6.972;2022-11-04T07:58:42;8.20;99.90
15636;DHT22;7917;50.818;6.972;2022-11-04T08:01:12;8.30;99.90
15636;DHT22;7917;50.818;6.972;2022-11-04T08:03:40;8.40;99.90
15636;DHT22;7917;50.818;6.972;2022-11-04T08:06:12;8.40;99.90
15636;DHT22;7917;50.818;6.972;2022-11-04T08:08:41;8.50;99.90
15636;DHT22;7917;50.818;6.972;2022-11-04T08:17:54;8.70;99.90
15636;DHT22;7917;50.818;6.972;2022-11-04T08:20:21;8.80;99.90
15636;DHT22;7917;50.818;6.972;2022-11-04T08:22:50;8.80;99.90
15636;DHT22;7917;50.818;6.972;2022-11-04T08:25:17;8.90;99.90
15636;DHT22;7917;50.818;6.972;2022-11-04T08:27:44;9.00;99.90
15636;DHT22;7917;50.818;6.972;2022-11-04T08:30:12;9.10;99.90
15636;DHT22;7917;50.818;6.972;2022-11-04T08:32:39;9.20;99.90
15636;DHT22;7917;50.818;6.972;2022-11-04T08:35:08;9.30;99.90
15636;DHT22;7917;50.818;6.972;2022-11-04T08:37:37;9.40;99.90
15636;DHT22;7917;50.818;6.972;2022-11-04T08:40:06;9.60;99.90
15636;DHT22;7917;50.818;6.972;2022-11-04T08:42:33;9.70;99.90
15636;DHT22;7917;50.818;6.972;2022-11-04T08:45:04;9.90;99.90
15636;DHT22;7917;50.818;6.972;2022-11-04T08:47:31;10.10;99.90
15636;DHT22;7917;50.818;6.972;2022-11-04T08:49:59;10.30;99.90
15636;DHT22;7917;50.818;6.972;2022-11-04T08:52:29;10.50;99.90
15636;DHT22;7917;50.818;6.972;2022-11-04T08:54:56;10.70;99.90
15636;DHT22;7917;50.818;6.972;2022-11-04T08:57:23;10.90;99.90
15636;DHT22;7917;50.818;6.972;2022-11-04T08:59:51;11.10;99.90
15636;DHT22;7917;50.818;6.972;2022-11-04T09:02:18;11.00;99.90
15636;DHT22;7917;50.818;6.972;2022-11-04T09:04:45;11.00;99.90
15636;DHT22;7917;50.818;6.972;2022-11-04T09:07:13;11.00;99.90
15636;DHT22;7917;50.818;6.972;2022-11-04T09:09:42;11.00;99.90
15636;DHT22;7917;50.818;6.972;2022-11-04T09:12:09;11.00;99.90
15636;DHT22;7917;50.818;6.972;2022-11-04T09:14:38;10.90;99.90
15636;DHT22;7917;50.818;6.972;2022-11-04T09:17:05;10.80;99.90
15636;DHT22;7917;50.818;6.972;2022-11-04T09:19:32;10.90;99.90
15636;DHT22;7917;50.818;6.972;2022-11-04T09:22:00;11.00;99.90
15636;DHT22;7917;50.818;6.972;2022-11-04T09:24:28;11.10;99.90
15636;DHT22;7917;50.818;6.972;2022-11-04T09:26:57;11.20;99.90
15636;DHT22;7917;50.818;6.972;2022-11-04T09:29:25;11.40;99.90
15636;DHT22;7917;50.818;6.972;2022-11-04T09:31:53;11.50;99.90
15636;DHT22;7917;50.818;6.972;2022-11-04T09:34:20;11.60;99.90
15636;DHT22;7917;50.818;6.972;2022-11-04T09:36:48;11.70;99.90
15636;DHT22;7917;50.818;6.972;2022-11-04T09:39:15;11.90;99.90
15636;DHT22;7917;50.818;6.972;2022-11-04T09:42:04;12.10;99.90
15636;DHT22;7917;50.818;6.972;2022-11-04T09:44:45;12.40;99.90
15636;DHT22;7917;50.818;6.972;2022-11-04T09:47:18;12.40;99.90
15636;DHT22;7917;50.818;6.972;2022-11-04T09:49:50;12.30;99.90
15636;DHT22;7917;50.818;6.972;2022-11-04T09:52:25;12.50;99.90
15636;DHT22;7917;50.818;6.972;2022-11-04T09:54:57;12.60;99.90
15636;DHT22;7917;50.818;6.972;2022-11-04T09:57:29;12.60;99.90
15636;DHT22;7917;50.818;6.972;2022-11-04T09:59:57;12.60;99.90
15636;DHT22;7917;50.818;6.972;2022-11-04T10:02:39;12.60;99.90
15636;DHT22;7917;50.818;6.972;2022-11-04T10:05:21;12.70;99.90
15636;DHT22;7917;50.818;6.972;2022-11-04T10:08:18;12.70;99.90
15636;DHT22;7917;50.818;6.972;2022-11-04T10:10:53;12.80;99.90
15636;DHT22;7917;50.818;6.972;2022-11-04T10:13:30;13.00;99.90
15636;DHT22;7917;50.818;6.972;2022-11-04T10:16:13;13.00;99.90
15636;DHT22;7917;50.818;6.972;2022-11-04T10:18:56;13.10;99.90
15636;DHT22;7917;50.818;6.972;2022-11-04T10:21:38;12.90;99.90
15636;DHT22;7917;50.818;6.972;2022-11-04T10:24:17;13.00;99.90
15636;DHT22;7917;50.818;6.972;2022-11-04T10:26:46;12.90;99.90
15636;DHT22;7917;50.818;6.972;2022-11-04T10:29:25;12.90;99.90
15636;DHT22;7917;50.818;6.972;2022-11-04T10:31:55;12.90;99.90
15636;DHT22;7917;50.818;6.972;2022-11-04T10:34:30;12.80;99.90
15636;DHT22;7917;50.818;6.972;2022-11-04T10:37:01;12.70;99.90
15636;DHT22;7917;50.818;6.972;2022-11-04T10:39:34;12.70;99.90
15636;DHT22;7917;50.818;6.972;2022-11-04T10:42:04;12.70;99.90
15636;DHT22;7917;50.818;6.972;2022-11-04T10:44:34;12.80;99.90
15636;DHT22;7917;50.818;6.972;2022-11-04T10:47:09;12.80;99.90
15636;DHT22;7917;50.818;6.972;2022-11-04T10:49:56;12.80;99.90
15636;DHT22;7917;50.818;6.972;2022-11-04T10:52:27;12.90;99.90
15636;DHT22;7917;50.818;6.972;2022-11-04T10:54:55;13.00;99.90
15636;DHT22;7917;50.818;6.972;2022-11-04T10:57:24;13.00;99.90
15636;DHT22;7917;50.818;6.972;2022-11-04T10:59:56;13.00;99.90
15636;DHT22;7917;50.818;6.972;2022-11-04T11:02:45;13.00;99.90
15636;DHT22;7917;50.818;6.972;2022-11-04T11:05:21;13.10;99.90
15636;DHT22;7917;50.818;6.972;2022-11-04T11:07:52;13.10;99.90
15636;DHT22;7917;50.818;6.972;2022-11-04T11:10:22;13.20;99.90
15636;DHT22;7917;50.818;6.972;2022-11-04T11:12:52;13.40;99.90
15636;DHT22;7917;50.818;6.972;2022-11-04T11:15:31;13.70;99.90
15636;DHT22;7917;50.818;6.972;2022-11-04T11:18:12;13.90;99.90
15636;DHT22;7917;50.818;6.972;2022-11-04T11:20:42;13.80;99.90
15636;DHT22;7917;50.818;6.972;2022-11-04T11:23:35;13.50;99.90
15636;DHT22;7917;50.818;6.972;2022-11-04T11:26:05;13.50;99.90
15636;DHT22;7917;50.818;6.972;2022-11-04T11:28:34;13.40;99.90
15636;DHT22;7917;50.818;6.972;2022-11-04T11:31:11;13.50;99.90
15636;DHT22;7917;50.818;6.972;2022-11-04T11:33:48;13.70;1.00
15636;DHT22;7917;50.818;6.972;2022-11-04T11:36:19;13.70;1.00
15636;DHT22;7917;50.818;6.972;2022-11-04T11:39:02;13.80;99.90
15636;DHT22;7917;50.818;6.972;2022-11-04T11:41:33;13.80;99.90
15636;DHT22;7917;50.818;6.972;2022-11-04T11:44:05;13.70;99.90
15636;DHT22;7917;50.818;6.972;2022-11-04T11:46:35;13.70;99.90
15636;DHT22;7917;50.818;6.972;2022-11-04T11:49:23;13.90;99.90
15636;DHT22;7917;50.818;6.972;2022-11-04T11:51:51;13.80;1.00
15636;DHT22;7917;50.818;6.972;2022-11-04T11:54:24;13.70;1.00
15636;DHT22;7917;50.818;6.972;2022-11-04T11:56:54;13.60;99.90
15636;DHT22;7917;50.818;6.972;2022-11-04T11:59:34;13.50;99.90
15636;DHT22;7917;50.818;6.972;2022-11-04T12:02:23;13.50;1.00
15636;DHT22;7917;50.818;6.972;2022-11-04T12:04:52;13.50;1.00
15636;DHT22;7917;50.818;6.972;2022-11-04T12:07:28;13.40;1.00
15636;DHT22;7917;50.818;6.972;2022-11-04T12:10:03;13.50;1.00
15636;DHT22;7917;50.818;6.972;2022-11-04T12:12:43;13.60;1.00
15636;DHT22;7917;50.818;6.972;2022-11-04T12:15:24;13.80;99.90
15636;DHT22;7917;50.818;6.972;2022-11-04T12:18:05;13.70;1.00
15636;DHT22;7917;50.818;6.972;2022-11-04T12:20:44;13.80;1.00
15636;DHT22;7917;50.818;6.972;2022-11-04T12:23:19;13.90;99.90
15636;DHT22;7917;50.818;6.972;2022-11-04T12:26:01;14.20;99.90
15636;DHT22;7917;50.818;6.972;2022-11-04T12:28:41;14.60;1.00
15636;DHT22;7917;50.818;6.972;2022-11-04T12:31:24;14.60;99.90
15636;DHT22;7917;50.818;6.972;2022-11-04T12:34:06;14.60;1.00
15636;DHT22;7917;50.818;6.972;2022-11-04T12:36:47;14.50;1.00
15636;DHT22;7917;50.818;6.972;2022-11-04T12:39:29;14.40;1.00
15636;DHT22;7917;50.818;6.972;2022-11-04T12:42:09;14.10;99.90
15636;DHT22;7917;50.818;6.972;2022-11-04T12:44:45;14.00;1.00
15636;DHT22;7917;50.818;6.972;2022-11-04T12:47:25;13.90;1.00
15636;DHT22;7917;50.818;6.972;2022-11-04T12:50:08;13.80;99.90
15636;DHT22;7917;50.818;6.972;2022-11-04T12:52:53;13.80;99.90
15636;DHT22;7917;50.818;6.972;2022-11-04T12:55:34;13.70;1.00
15636;DHT22;7917;50.818;6.972;2022-11-04T12:58:17;13.60;99.90
15636;DHT22;7917;50.818;6.972;2022-11-04T13:00:52;13.80;99.90
15636;DHT22;7917;50.818;6.972;2022-11-04T13:03:26;13.80;78.10
15636;DHT22;7917;50.818;6.972;2022-11-04T13:06:02;14.00;99.90
15636;DHT22;7917;50.818;6.972;2022-11-04T13:08:36;14.00;1.00
15636;DHT22;7917;50.818;6.972;2022-11-04T13:11:09;14.00;99.90
15636;DHT22;7917;50.818;6.972;2022-11-04T13:13:55;13.90;99.90
15636;DHT22;7917;50.818;6.972;2022-11-04T13:16:24;13.90;1.00
15636;DHT22;7917;50.818;6.972;2022-11-04T13:18:52;13.70;1.00
15636;DHT22;7917;50.818;6.972;2022-11-04T13:21:26;13.70;1.00
15636;DHT22;7917;50.818;6.972;2022-11-04T13:23:57;13.60;99.90
15636;DHT22;7917;50.818;6.972;2022-11-04T13:26:26;13.60;1.00
15636;DHT22;7917;50.818;6.972;2022-11-04T13:28:56;13.60;1.00
15636;DHT22;7917;50.818;6.972;2022-11-04T13:31:50;13.50;99.90
15636;DHT22;7917;50.818;6.972;2022-11-04T13:34:31;13.40;1.00
15636;DHT22;7917;50.818;6.972;2022-11-04T13:37:10;13.30;1.00
15636;DHT22;7917;50.818;6.972;2022-11-04T13:39:45;13.20;99.90
15636;DHT22;7917;50.818;6.972;2022-11-04T13:42:53;13.10;1.00
15636;DHT22;7917;50.818;6.972;2022-11-04T13:45:47;12.90;99.90
15636;DHT22;7917;50.818;6.972;2022-11-04T13:48:17;12.70;99.90
15636;DHT22;7917;50.818;6.972;2022-11-04T13:51:00;12.70;99.90
15636;DHT22;7917;50.818;6.972;2022-11-04T13:53:44;12.60;99.90
15636;DHT22;7917;50.818;6.972;2022-11-04T13:56:30;12.50;99.90
15636;DHT22;7917;50.818;6.972;2022-11-04T13:59:01;12.50;99.90
15636;DHT22;7917;50.818;6.972;2022-11-04T14:01:30;12.40;99.90
15636;DHT22;7917;50.818;6.972;2022-11-04T14:06:59;12.50;99.90
15636;DHT22;7917;50.818;6.972;2022-11-04T14:09:51;12.60;99.90
15636;DHT22;7917;50.818;6.972;2022-11-04T14:12:37;12.60;99.90
15636;DHT22;7917;50.818;6.972;2022-11-04T14:15:11;12.60;99.90
15636;DHT22;7917;50.818;6.972;2022-11-04T14:17:59;12.70;99.90
15636;DHT22;7917;50.818;6.972;2022-11-04T14:20:31;12.80;99.90
15636;DHT22;7917;50.818;6.972;2022-11-04T14:23:00;13.00;99.90
15636;DHT22;7917;50.818;6.972;2022-11-04T14:25:33;13.10;99.90
15636;DHT22;7917;50.818;6.972;2022-11-04T14:28:17;13.00;99.90
15636;DHT22;7917;50.818;6.972;2022-11-04T14:30:50;12.80;99.90
15636;DHT22;7917;50.818;6.972;2022-11-04T14:33:39;12.80;99.90
15636;DHT22;7917;50.818;6.972;2022-11-04T14:36:31;12.70;99.90
15636;DHT22;7917;50.818;6.972;2022-11-04T14:39:18;12.80;99.90
15636;DHT22;7917;50.818;6.972;2022-11-04T14:42:07;12.70;99.90
15636;DHT22;7917;50.818;6.972;2022-11-04T14:44:45;12.70;99.90
15636;DHT22;7917;50.818;6.972;2022-11-04T14:47:20;12.60;99.90
15636;DHT22;7917;50.818;6.972;2022-11-04T14:49:51;12.60;99.90
15636;DHT22;7917;50.818;6.972;2022-11-04T14:52:27;12.50;99.90
15636;DHT22;7917;50.818;6.972;2022-11-04T14:54:57;12.40;99.90
15636;DHT22;7917;50.818;6.972;2022-11-04T14:57:35;12.40;99.90
15636;DHT22;7917;50.818;6.972;2022-11-04T15:00:19;12.30;99.90
15636;DHT22;7917;50.818;6.972;2022-11-04T15:02:47;12.20;99.90
15636;DHT22;7917;50.818;6.972;2022-11-04T15:05:21;12.20;99.90
15636;DHT22;7917;50.818;6.972;2022-11-04T15:07:50;11.90;99.90
15636;DHT22;7917;50.818;6.972;2022-11-04T15:10:20;11.60;99.90
15636;DHT22;7917;50.818;6.972;2022-11-04T15:12:51;11.40;99.90
15636;DHT22;7917;50.818;6.972;2022-11-04T15:15:33;11.20;99.90
15636;DHT22;7917;50.818;6.972;2022-11-04T15:18:04;11.20;99.90
15636;DHT22;7917;50.818;6.972;2022-11-04T15:20:34;11.10;99.90
15636;DHT22;7917;50.818;6.972;2022-11-04T15:23:06;11.10;99.90
15636;DHT22;7917;50.818;6.972;2022-11-04T15:25:44;11.10;99.90
15636;DHT22;7917;50.818;6.972;2022-11-04T15:28:21;11.10;99.90
15636;DHT22;7917;50.818;6.972;2022-11-04T15:31:05;11.10;99.90
15636;DHT22;7917;50.818;6.972;2022-11-04T15:33:38;11.00;99.90
15636;DHT22;7917;50.818;6.972;2022-11-04T15:36:14;11.10;99.90
15636;DHT22;7917;50.818;6.972;2022-11-04T15:38:46;11.00;99.90
15636;DHT22;7917;50.818;6.972;2022-11-04T15:41:18;11.10;99.90
15636;DHT22;7917;50.818;6.972;2022-11-04T15:44:16;11.00;99.90
15636;DHT22;7917;50.818;6.972;2022-11-04T15:46:48;11.10;99.90
15636;DHT22;7917;50.818;6.972;2022-11-04T15:49:21;11.00;99.90
15636;DHT22;7917;50.818;6.972;2022-11-04T15:51:54;10.90;99.90
15636;DHT22;7917;50.818;6.972;2022-11-04T15:54:27;10.90;99.90
15636;DHT22;7917;50.818;6.972;2022-11-04T15:56:57;11.00;99.90
15636;DHT22;7917;50.818;6.972;2022-11-04T15:59:28;10.90;99.90
15636;DHT22;7917;50.818;6.972;2022-11-04T16:01:58;10.90;99.90
15636;DHT22;7917;50.818;6.972;2022-11-04T16:04:27;10.80;99.90
15636;DHT22;7917;50.818;6.972;2022-11-04T16:07:17;10.80;99.90
15636;DHT22;7917;50.818;6.972;2022-11-04T16:09:48;10.80;99.90
15636;DHT22;7917;50.818;6.972;2022-11-04T16:12:24;10.70;99.90
15636;DHT22;7917;50.818;6.972;2022-11-04T16:14:55;10.70;99.90
15636;DHT22;7917;50.818;6.972;2022-11-04T16:17:25;10.60;99.90
15636;DHT22;7917;50.818;6.972;2022-11-04T16:19:55;10.60;99.90
15636;DHT22;7917;50.818;6.972;2022-11-04T16:22:27;10.50;99.90
15636;DHT22;7917;50.818;6.972;2022-11-04T16:24:58;10.50;99.90
15636;DHT22;7917;50.818;6.972;2022-11-04T16:27:27;10.50;99.90
15636;DHT22;7917;50.818;6.972;2022-11-04T16:30:05;10.50;99.90
15636;DHT22;7917;50.818;6.972;2022-11-04T16:32:45;10.50;99.90
15636;DHT22;7917;50.818;6.972;2022-11-04T16:35:17;10.40;99.90
15636;DHT22;7917;50.818;6.972;2022-11-04T16:37:45;10.40;99.90
15636;DHT22;7917;50.818;6.972;2022-11-04T16:40:12;10.40;99.90
15636;DHT22;7917;50.818;6.972;2022-11-04T16:42:41;10.40;99.90